METAR Data
IDs: Format: Raw Decoded Include TAF

Data at: 0113 UTC 06 Dec 2019

KBNA 060053Z 18003KT 10SM BKN140 BKN250 13/M01 A3011 RMK AO2 SLP198 T01281011
KBNA 052353Z 17004KT 10SM BKN150 BKN250 12/M01 A3010 RMK AO2 SLP194 T01221006 10178 20122 53004
KBNA 052253Z 17005KT 10SM BKN150 BKN250 14/M01 A3009 RMK AO2 SLP190 T01441011
KBNA 052153Z 22004KT 10SM FEW250 16/M01 A3009 RMK AO2 SLP190 T01561011
KBNA 052053Z 25008KT 10SM FEW250 17/M03 A3009 RMK AO2 SLP188 T01721028 56013
KBNA 051953Z 19005KT 10SM FEW200 FEW250 17/M02 A3009 RMK AO2 SLP190 T01721022
KBNA 051853Z 18006KT 10SM FEW200 17/M02 A3010 RMK AO2 SLP192 T01671022
KBNA 051753Z 17007KT 10SM FEW200 16/M01 A3013 RMK AO2 SLP202 T01561011 10161 20011 58012
KBNA 051653Z 16004KT 10SM FEW250 14/M01 A3015 RMK AO2 SLP209 T01391006
KBNA 051553Z 17005KT 10SM FEW220 FEW250 12/00 A3016 RMK AO2 SLP214 T01170000
KBNA 051453Z 25003KT 10SM FEW230 09/01 A3016 RMK AO2 SLP214 T00890006 51025
KBNA 051353Z 00000KT 10SM FEW050 04/00 A3014 RMK AO2 SLP206 T00390000
KBNA 051253Z 20003KT 10SM FEW030 02/M02 A3012 RMK AO2 SLP201 T00171017
KBNA 051153Z 18005KT 10SM FEW250 01/M02 A3009 RMK AO2 SLP190 T00111022 10083 20006 53010
KBNA 051053Z 00000KT 10SM CLR 02/M01 A3007 RMK AO2 SLP183 T00221011
KBNA 050953Z 18004KT 10SM CLR 02/M01 A3007 RMK AO2 SLP181 T00221011
KBNA 050853Z 17005KT 10SM CLR 02/M02 A3006 RMK AO2 SLP179 T00221017 51011
KBNA 050753Z 17003KT 10SM CLR 03/M01 A3004 RMK AO2 SLP173 T00331011
KBNA 050653Z 00000KT 10SM CLR 07/M01 A3004 RMK AO2 SLP172 T00721011
KBNA 050553Z 27003KT 10SM CLR 08/M01 A3003 RMK AO2 SLP167 T00781011 10117 20078 401610033 51010
KBNA 050453Z 27005KT 10SM CLR 08/M02 A3002 RMK AO2 SLP165 T00831017
KBNA 050353Z 26003KT 10SM FEW250 08/M02 A3001 RMK AO2 SLP161 T00831017
KBNA 050253Z 29003KT 10SM CLR 09/M02 A3000 RMK AO2 SLP158 T00941017 53013
KBNA 050153Z 25003KT 10SM CLR 10/M02 A2998 RMK AO2 SLP151 T01001022
KBNA 050053Z 26004KT 10SM CLR 11/M03 A2997 RMK AO2 SLP149 T01061033
KBNA 042353Z 27004KT 10SM FEW250 12/M03 A2996 RMK AO2 SLP144 T01171033 10161 20117 53017
KBNA 042253Z 28005KT 10SM FEW250 13/M04 A2994 RMK AO2 SLP138 T01281039
KBNA 042153Z 30006KT 10SM FEW250 14/M04 A2992 RMK AO2 SLP131 T01441039
KBNA 042053Z 30007KT 10SM FEW250 16/M04 A2991 RMK AO2 SLP126 T01611039 55002
KBNA 041953Z 28008KT 250V320 10SM FEW250 16/M04 A2989 RMK AO2 SLP121 T01611039
KBNA 041853Z 29007KT 10SM FEW250 15/M04 A2990 RMK AO2 SLP124 T01501039
KBNA 041753Z 27009KT 10SM FEW250 13/M03 A2991 RMK AO2 SLP130 T01331028 10133 20033 58002
KBNA 041653Z 26010G15KT 10SM CLR 12/M02 A2993 RMK AO2 SLP136 T01171022
KBNA 041553Z 29008KT 10SM CLR 10/M01 A2994 RMK AO2 SLP138 T01001011 $
KBNA 041453Z 27006KT 10SM CLR 08/00 A2992 RMK AO2 SLP133 T00830000 53013 $
KBNA 041353Z 26003KT 10SM CLR 06/00 A2991 RMK AO2 SLP128 T00610000 $